sensor_id;sensor_type;location;lat;lon;timestamp;P1;durP1;ratioP1;P2;durP2;ratioP2
60068;SDS011;45945;53.350;55.922;2022-10-16T00:00:51;7.38;;;2.80;;
60068;SDS011;45945;53.350;55.922;2022-10-16T00:01:52;6.03;;;2.80;;
60068;SDS011;45945;53.350;55.922;2022-10-16T00:02:52;5.10;;;2.17;;
60068;SDS011;45945;53.350;55.922;2022-10-16T00:03:54;6.20;;;2.65;;
60068;SDS011;45945;53.350;55.922;2022-10-16T00:04:56;5.57;;;3.15;;
60068;SDS011;45945;53.350;55.922;2022-10-16T00:05:58;5.93;;;2.70;;
60068;SDS011;45945;53.350;55.922;2022-10-16T00:07:00;7.05;;;2.67;;
60068;SDS011;45945;53.350;55.922;2022-10-16T00:08:02;6.60;;;2.40;;
60068;SDS011;45945;53.350;55.922;2022-10-16T00:09:03;4.85;;;2.08;;
60068;SDS011;45945;53.350;55.922;2022-10-16T00:10:04;6.25;;;2.63;;
60068;SDS011;45945;53.350;55.922;2022-10-16T00:11:07;5.57;;;2.47;;
60068;SDS011;45945;53.350;55.922;2022-10-16T00:12:10;5.80;;;2.58;;
60068;SDS011;45945;53.350;55.922;2022-10-16T00:13:11;4.82;;;2.40;;
60068;SDS011;45945;53.350;55.922;2022-10-16T00:14:13;6.68;;;2.80;;
60068;SDS011;45945;53.350;55.922;2022-10-16T00:15:15;5.47;;;2.80;;
60068;SDS011;45945;53.350;55.922;2022-10-16T00:16:16;5.72;;;2.47;;
60068;SDS011;45945;53.350;55.922;2022-10-16T00:17:18;5.68;;;2.33;;
60068;SDS011;45945;53.350;55.922;2022-10-16T00:18:19;6.07;;;2.75;;
60068;SDS011;45945;53.350;55.922;2022-10-16T00:19:21;5.20;;;2.28;;
60068;SDS011;45945;53.350;55.922;2022-10-16T00:20:22;5.00;;;2.30;;
60068;SDS011;45945;53.350;55.922;2022-10-16T00:21:41;5.63;;;2.65;;
60068;SDS011;45945;53.350;55.922;2022-10-16T00:23:01;6.00;;;2.80;;
60068;SDS011;45945;53.350;55.922;2022-10-16T00:24:03;6.10;;;2.70;;
60068;SDS011;45945;53.350;55.922;2022-10-16T00:25:08;4.30;;;2.05;;
60068;SDS011;45945;53.350;55.922;2022-10-16T00:26:13;5.60;;;2.42;;
60068;SDS011;45945;53.350;55.922;2022-10-16T00:27:16;7.28;;;2.70;;
60068;SDS011;45945;53.350;55.922;2022-10-16T00:28:17;5.38;;;2.47;;
60068;SDS011;45945;53.350;55.922;2022-10-16T00:29:18;6.00;;;2.50;;
60068;SDS011;45945;53.350;55.922;2022-10-16T00:30:19;6.13;;;2.80;;
60068;SDS011;45945;53.350;55.922;2022-10-16T00:31:20;6.00;;;2.70;;
60068;SDS011;45945;53.350;55.922;2022-10-16T00:32:22;6.32;;;2.97;;
60068;SDS011;45945;53.350;55.922;2022-10-16T00:33:27;6.15;;;3.03;;
60068;SDS011;45945;53.350;55.922;2022-10-16T00:34:28;6.32;;;2.83;;
60068;SDS011;45945;53.350;55.922;2022-10-16T00:35:30;7.10;;;2.67;;
60068;SDS011;45945;53.350;55.922;2022-10-16T00:36:31;7.13;;;3.00;;
60068;SDS011;45945;53.350;55.922;2022-10-16T00:37:32;6.35;;;2.70;;
60068;SDS011;45945;53.350;55.922;2022-10-16T00:38:33;6.72;;;2.80;;
60068;SDS011;45945;53.350;55.922;2022-10-16T00:39:35;7.20;;;3.15;;
60068;SDS011;45945;53.350;55.922;2022-10-16T00:40:36;5.35;;;2.53;;
60068;SDS011;45945;53.350;55.922;2022-10-16T00:41:37;7.68;;;2.92;;
60068;SDS011;45945;53.350;55.922;2022-10-16T00:42:37;6.45;;;3.03;;
60068;SDS011;45945;53.350;55.922;2022-10-16T00:44:53;6.45;;;2.92;;
60068;SDS011;45945;53.350;55.922;2022-10-16T00:45:59;6.45;;;3.00;;
60068;SDS011;45945;53.350;55.922;2022-10-16T00:47:02;7.32;;;2.88;;
60068;SDS011;45945;53.350;55.922;2022-10-16T00:48:03;7.05;;;3.22;;
60068;SDS011;45945;53.350;55.922;2022-10-16T00:50:13;6.35;;;3.20;;
60068;SDS011;45945;53.350;55.922;2022-10-16T00:51:23;8.73;;;3.00;;
60068;SDS011;45945;53.350;55.922;2022-10-16T00:52:28;6.18;;;3.00;;
60068;SDS011;45945;53.350;55.922;2022-10-16T00:53:30;8.63;;;3.45;;
60068;SDS011;45945;53.350;55.922;2022-10-16T00:54:31;6.75;;;3.00;;
60068;SDS011;45945;53.350;55.922;2022-10-16T00:55:33;7.53;;;3.25;;
60068;SDS011;45945;53.350;55.922;2022-10-16T00:56:35;6.88;;;3.03;;
60068;SDS011;45945;53.350;55.922;2022-10-16T00:57:36;7.38;;;3.22;;
60068;SDS011;45945;53.350;55.922;2022-10-16T00:58:38;6.88;;;3.28;;
60068;SDS011;45945;53.350;55.922;2022-10-16T00:59:39;8.35;;;3.20;;
60068;SDS011;45945;53.350;55.922;2022-10-16T01:00:41;7.63;;;3.42;;
60068;SDS011;45945;53.350;55.922;2022-10-16T01:01:42;6.25;;;3.08;;
60068;SDS011;45945;53.350;55.922;2022-10-16T01:02:43;6.13;;;2.70;;
60068;SDS011;45945;53.350;55.922;2022-10-16T01:03:44;6.75;;;3.05;;
60068;SDS011;45945;53.350;55.922;2022-10-16T01:04:47;8.57;;;3.35;;
60068;SDS011;45945;53.350;55.922;2022-10-16T01:05:57;6.97;;;3.13;;
60068;SDS011;45945;53.350;55.922;2022-10-16T01:08:34;7.18;;;3.30;;
60068;SDS011;45945;53.350;55.922;2022-10-16T01:09:51;7.50;;;2.97;;
60068;SDS011;45945;53.350;55.922;2022-10-16T01:11:00;7.68;;;3.45;;
60068;SDS011;45945;53.350;55.922;2022-10-16T01:13:41;7.15;;;3.03;;
60068;SDS011;45945;53.350;55.922;2022-10-16T01:14:54;7.97;;;3.00;;
60068;SDS011;45945;53.350;55.922;2022-10-16T01:16:15;9.25;;;3.25;;
60068;SDS011;45945;53.350;55.922;2022-10-16T01:17:31;6.47;;;3.13;;
60068;SDS011;45945;53.350;55.922;2022-10-16T01:18:40;6.25;;;3.45;;
60068;SDS011;45945;53.350;55.922;2022-10-16T01:20:59;5.88;;;2.88;;
60068;SDS011;45945;53.350;55.922;2022-10-16T01:22:04;6.97;;;2.80;;
60068;SDS011;45945;53.350;55.922;2022-10-16T01:25:43;6.88;;;2.88;;
60068;SDS011;45945;53.350;55.922;2022-10-16T01:28:13;6.70;;;3.30;;
60068;SDS011;45945;53.350;55.922;2022-10-16T01:29:26;6.70;;;2.90;;
60068;SDS011;45945;53.350;55.922;2022-10-16T01:30:33;6.10;;;2.85;;
60068;SDS011;45945;53.350;55.922;2022-10-16T01:31:38;6.30;;;3.00;;
60068;SDS011;45945;53.350;55.922;2022-10-16T01:33:57;7.30;;;3.35;;
60068;SDS011;45945;53.350;55.922;2022-10-16T01:35:20;7.03;;;3.20;;
60068;SDS011;45945;53.350;55.922;2022-10-16T01:36:27;6.55;;;3.13;;
60068;SDS011;45945;53.350;55.922;2022-10-16T01:37:36;6.63;;;3.15;;
60068;SDS011;45945;53.350;55.922;2022-10-16T01:38:42;7.95;;;3.20;;
60068;SDS011;45945;53.350;55.922;2022-10-16T01:39:45;7.47;;;3.20;;
60068;SDS011;45945;53.350;55.922;2022-10-16T01:40:51;7.60;;;3.35;;
60068;SDS011;45945;53.350;55.922;2022-10-16T01:42:05;8.80;;;3.42;;
60068;SDS011;45945;53.350;55.922;2022-10-16T01:43:16;7.25;;;3.30;;
60068;SDS011;45945;53.350;55.922;2022-10-16T01:44:31;8.57;;;3.53;;
60068;SDS011;45945;53.350;55.922;2022-10-16T01:45:34;7.65;;;3.70;;
60068;SDS011;45945;53.350;55.922;2022-10-16T01:46:36;4.85;;;2.15;;
60068;SDS011;45945;53.350;55.922;2022-10-16T01:47:39;9.88;;;3.60;;
60068;SDS011;45945;53.350;55.922;2022-10-16T01:48:42;7.45;;;3.40;;
60068;SDS011;45945;53.350;55.922;2022-10-16T01:49:43;6.78;;;2.92;;
60068;SDS011;45945;53.350;55.922;2022-10-16T01:50:48;7.25;;;3.30;;
60068;SDS011;45945;53.350;55.922;2022-10-16T01:52:05;6.00;;;3.30;;
60068;SDS011;45945;53.350;55.922;2022-10-16T01:53:10;7.05;;;3.42;;
60068;SDS011;45945;53.350;55.922;2022-10-16T01:54:14;6.32;;;3.05;;
60068;SDS011;45945;53.350;55.922;2022-10-16T01:55:26;5.93;;;2.80;;
60068;SDS011;45945;53.350;55.922;2022-10-16T01:56:33;6.90;;;3.45;;
60068;SDS011;45945;53.350;55.922;2022-10-16T01:57:37;6.88;;;3.35;;
60068;SDS011;45945;53.350;55.922;2022-10-16T01:58:43;5.88;;;3.15;;
60068;SDS011;45945;53.350;55.922;2022-10-16T01:59:50;7.43;;;3.60;;
60068;SDS011;45945;53.350;55.922;2022-10-16T02:00:55;8.40;;;3.20;;
60068;SDS011;45945;53.350;55.922;2022-10-16T02:02:01;7.15;;;3.20;;
60068;SDS011;45945;53.350;55.922;2022-10-16T02:03:06;9.00;;;3.60;;
60068;SDS011;45945;53.350;55.922;2022-10-16T02:04:11;8.50;;;3.30;;
60068;SDS011;45945;53.350;55.922;2022-10-16T02:05:25;6.78;;;3.00;;
60068;SDS011;45945;53.350;55.922;2022-10-16T02:06:31;7.88;;;2.92;;
60068;SDS011;45945;53.350;55.922;2022-10-16T02:07:32;8.57;;;3.40;;
60068;SDS011;45945;53.350;55.922;2022-10-16T02:08:33;6.75;;;3.13;;
60068;SDS011;45945;53.350;55.922;2022-10-16T02:09:35;8.05;;;3.03;;
60068;SDS011;45945;53.350;55.922;2022-10-16T02:10:37;7.20;;;3.10;;
60068;SDS011;45945;53.350;55.922;2022-10-16T02:11:39;8.10;;;3.15;;
60068;SDS011;45945;53.350;55.922;2022-10-16T02:12:41;6.82;;;3.05;;
60068;SDS011;45945;53.350;55.922;2022-10-16T02:13:50;7.30;;;3.13;;
60068;SDS011;45945;53.350;55.922;2022-10-16T02:14:56;6.10;;;2.72;;
60068;SDS011;45945;53.350;55.922;2022-10-16T02:15:58;6.78;;;3.20;;
60068;SDS011;45945;53.350;55.922;2022-10-16T02:16:59;6.05;;;2.72;;
60068;SDS011;45945;53.350;55.922;2022-10-16T02:18:01;7.50;;;3.25;;
60068;SDS011;45945;53.350;55.922;2022-10-16T02:19:06;6.93;;;3.15;;
60068;SDS011;45945;53.350;55.922;2022-10-16T02:20:08;5.28;;;2.17;;
60068;SDS011;45945;53.350;55.922;2022-10-16T02:21:14;6.30;;;2.38;;
60068;SDS011;45945;53.350;55.922;2022-10-16T02:22:36;6.80;;;3.05;;
60068;SDS011;45945;53.350;55.922;2022-10-16T02:26:05;6.90;;;2.97;;
60068;SDS011;45945;53.350;55.922;2022-10-16T02:27:10;6.22;;;3.03;;
60068;SDS011;45945;53.350;55.922;2022-10-16T02:28:19;6.55;;;3.03;;
60068;SDS011;45945;53.350;55.922;2022-10-16T02:29:27;6.55;;;3.22;;
60068;SDS011;45945;53.350;55.922;2022-10-16T02:30:36;6.50;;;3.00;;
60068;SDS011;45945;53.350;55.922;2022-10-16T02:31:43;6.30;;;3.15;;
60068;SDS011;45945;53.350;55.922;2022-10-16T02:32:52;6.75;;;3.10;;
60068;SDS011;45945;53.350;55.922;2022-10-16T02:33:55;7.65;;;3.50;;
60068;SDS011;45945;53.350;55.922;2022-10-16T02:34:59;6.95;;;3.22;;
60068;SDS011;45945;53.350;55.922;2022-10-16T02:36:01;8.75;;;3.65;;
60068;SDS011;45945;53.350;55.922;2022-10-16T02:37:03;6.32;;;3.13;;
60068;SDS011;45945;53.350;55.922;2022-10-16T02:38:05;6.68;;;3.25;;
60068;SDS011;45945;53.350;55.922;2022-10-16T02:39:08;5.95;;;3.00;;
60068;SDS011;45945;53.350;55.922;2022-10-16T02:40:11;7.03;;;2.95;;
60068;SDS011;45945;53.350;55.922;2022-10-16T02:41:13;8.02;;;3.70;;
60068;SDS011;45945;53.350;55.922;2022-10-16T02:42:15;7.75;;;3.45;;
60068;SDS011;45945;53.350;55.922;2022-10-16T02:43:18;7.10;;;3.30;;
60068;SDS011;45945;53.350;55.922;2022-10-16T02:44:20;8.85;;;3.83;;
60068;SDS011;45945;53.350;55.922;2022-10-16T02:45:21;7.70;;;3.60;;
60068;SDS011;45945;53.350;55.922;2022-10-16T02:46:22;8.07;;;3.42;;
60068;SDS011;45945;53.350;55.922;2022-10-16T02:47:23;7.55;;;3.53;;
60068;SDS011;45945;53.350;55.922;2022-10-16T02:48:24;9.68;;;3.67;;
60068;SDS011;45945;53.350;55.922;2022-10-16T02:49:25;6.38;;;2.92;;
60068;SDS011;45945;53.350;55.922;2022-10-16T02:50:26;6.97;;;3.45;;
60068;SDS011;45945;53.350;55.922;2022-10-16T02:51:27;6.70;;;3.35;;
60068;SDS011;45945;53.350;55.922;2022-10-16T02:52:28;7.15;;;3.72;;
60068;SDS011;45945;53.350;55.922;2022-10-16T02:53:29;7.13;;;3.22;;
60068;SDS011;45945;53.350;55.922;2022-10-16T02:54:30;7.32;;;3.60;;
60068;SDS011;45945;53.350;55.922;2022-10-16T02:55:31;6.65;;;3.47;;
60068;SDS011;45945;53.350;55.922;2022-10-16T02:56:33;7.05;;;2.85;;
60068;SDS011;45945;53.350;55.922;2022-10-16T02:57:34;7.30;;;3.03;;
60068;SDS011;45945;53.350;55.922;2022-10-16T02:58:37;6.68;;;3.03;;
60068;SDS011;45945;53.350;55.922;2022-10-16T02:59:38;7.43;;;3.42;;
60068;SDS011;45945;53.350;55.922;2022-10-16T03:00:39;7.53;;;3.30;;
60068;SDS011;45945;53.350;55.922;2022-10-16T03:01:40;6.00;;;2.63;;
60068;SDS011;45945;53.350;55.922;2022-10-16T03:02:41;6.25;;;3.05;;
60068;SDS011;45945;53.350;55.922;2022-10-16T03:03:42;6.20;;;3.00;;
60068;SDS011;45945;53.350;55.922;2022-10-16T03:04:43;6.68;;;2.92;;
60068;SDS011;45945;53.350;55.922;2022-10-16T03:05:44;8.20;;;2.80;;
60068;SDS011;45945;53.350;55.922;2022-10-16T03:06:48;6.15;;;2.88;;
60068;SDS011;45945;53.350;55.922;2022-10-16T03:07:49;6.43;;;2.83;;
60068;SDS011;45945;53.350;55.922;2022-10-16T03:08:50;6.55;;;2.70;;
60068;SDS011;45945;53.350;55.922;2022-10-16T03:09:51;6.38;;;2.95;;
60068;SDS011;45945;53.350;55.922;2022-10-16T03:10:52;8.00;;;3.17;;
60068;SDS011;45945;53.350;55.922;2022-10-16T03:11:52;6.35;;;3.08;;
60068;SDS011;45945;53.350;55.922;2022-10-16T03:12:53;6.22;;;2.90;;
60068;SDS011;45945;53.350;55.922;2022-10-16T03:13:54;6.25;;;3.08;;
60068;SDS011;45945;53.350;55.922;2022-10-16T03:14:55;7.60;;;3.15;;
60068;SDS011;45945;53.350;55.922;2022-10-16T03:15:57;5.82;;;2.70;;
60068;SDS011;45945;53.350;55.922;2022-10-16T03:16:58;9.00;;;3.80;;
60068;SDS011;45945;53.350;55.922;2022-10-16T03:17:59;7.18;;;3.80;;
60068;SDS011;45945;53.350;55.922;2022-10-16T03:19:00;7.10;;;3.85;;
60068;SDS011;45945;53.350;55.922;2022-10-16T03:20:01;9.93;;;6.10;;
60068;SDS011;45945;53.350;55.922;2022-10-16T03:21:02;10.23;;;5.68;;
60068;SDS011;45945;53.350;55.922;2022-10-16T03:22:03;9.13;;;5.45;;
60068;SDS011;45945;53.350;55.922;2022-10-16T03:23:04;8.95;;;4.70;;
60068;SDS011;45945;53.350;55.922;2022-10-16T03:24:05;10.70;;;5.65;;
60068;SDS011;45945;53.350;55.922;2022-10-16T03:25:06;9.55;;;5.60;;
60068;SDS011;45945;53.350;55.922;2022-10-16T03:26:08;10.43;;;5.10;;
60068;SDS011;45945;53.350;55.922;2022-10-16T03:27:09;12.07;;;6.82;;
60068;SDS011;45945;53.350;55.922;2022-10-16T03:28:10;16.48;;;9.75;;
60068;SDS011;45945;53.350;55.922;2022-10-16T03:29:11;16.15;;;9.55;;
60068;SDS011;45945;53.350;55.922;2022-10-16T03:30:12;16.08;;;9.05;;
60068;SDS011;45945;53.350;55.922;2022-10-16T03:31:13;14.98;;;8.23;;
60068;SDS011;45945;53.350;55.922;2022-10-16T03:32:14;14.02;;;6.88;;
60068;SDS011;45945;53.350;55.922;2022-10-16T03:33:15;11.50;;;5.90;;
60068;SDS011;45945;53.350;55.922;2022-10-16T03:34:16;12.77;;;6.57;;
60068;SDS011;45945;53.350;55.922;2022-10-16T03:35:16;13.65;;;7.35;;
60068;SDS011;45945;53.350;55.922;2022-10-16T03:36:17;14.90;;;8.07;;
60068;SDS011;45945;53.350;55.922;2022-10-16T03:37:18;16.38;;;8.70;;
60068;SDS011;45945;53.350;55.922;2022-10-16T03:38:20;12.57;;;7.47;;
60068;SDS011;45945;53.350;55.922;2022-10-16T03:39:21;13.13;;;8.10;;
60068;SDS011;45945;53.350;55.922;2022-10-16T03:40:22;12.18;;;7.15;;
60068;SDS011;45945;53.350;55.922;2022-10-16T03:41:23;13.55;;;7.30;;
60068;SDS011;45945;53.350;55.922;2022-10-16T03:42:24;13.35;;;7.70;;
60068;SDS011;45945;53.350;55.922;2022-10-16T03:43:25;14.13;;;6.95;;
60068;SDS011;45945;53.350;55.922;2022-10-16T03:44:26;10.15;;;5.80;;
60068;SDS011;45945;53.350;55.922;2022-10-16T03:45:27;9.63;;;5.32;;
60068;SDS011;45945;53.350;55.922;2022-10-16T03:46:28;7.85;;;3.92;;
60068;SDS011;45945;53.350;55.922;2022-10-16T03:47:29;7.55;;;3.58;;
60068;SDS011;45945;53.350;55.922;2022-10-16T03:48:33;9.48;;;5.18;;
60068;SDS011;45945;53.350;55.922;2022-10-16T03:49:34;9.30;;;5.30;;
60068;SDS011;45945;53.350;55.922;2022-10-16T03:50:35;10.43;;;5.38;;
60068;SDS011;45945;53.350;55.922;2022-10-16T03:51:36;9.57;;;5.95;;
60068;SDS011;45945;53.350;55.922;2022-10-16T03:52:37;10.20;;;5.13;;
60068;SDS011;45945;53.350;55.922;2022-10-16T03:53:38;10.35;;;5.93;;
60068;SDS011;45945;53.350;55.922;2022-10-16T03:54:39;10.80;;;6.00;;
60068;SDS011;45945;53.350;55.922;2022-10-16T03:55:41;12.07;;;6.82;;
60068;SDS011;45945;53.350;55.922;2022-10-16T03:56:42;10.57;;;6.03;;
60068;SDS011;45945;53.350;55.922;2022-10-16T03:57:43;8.98;;;5.22;;
60068;SDS011;45945;53.350;55.922;2022-10-16T03:58:44;10.05;;;4.55;;
60068;SDS011;45945;53.350;55.922;2022-10-16T03:59:46;9.35;;;4.78;;
60068;SDS011;45945;53.350;55.922;2022-10-16T04:00:47;9.88;;;5.18;;
60068;SDS011;45945;53.350;55.922;2022-10-16T04:01:48;9.60;;;6.05;;
60068;SDS011;45945;53.350;55.922;2022-10-16T04:02:49;10.65;;;6.53;;
60068;SDS011;45945;53.350;55.922;2022-10-16T04:03:50;13.88;;;7.22;;
60068;SDS011;45945;53.350;55.922;2022-10-16T04:04:51;12.93;;;6.63;;
60068;SDS011;45945;53.350;55.922;2022-10-16T04:05:53;13.43;;;6.75;;
60068;SDS011;45945;53.350;55.922;2022-10-16T04:06:53;12.85;;;7.35;;
60068;SDS011;45945;53.350;55.922;2022-10-16T04:07:54;10.15;;;5.93;;
60068;SDS011;45945;53.350;55.922;2022-10-16T04:08:55;10.70;;;5.30;;
60068;SDS011;45945;53.350;55.922;2022-10-16T04:09:56;10.02;;;5.90;;
60068;SDS011;45945;53.350;55.922;2022-10-16T04:10:59;10.05;;;5.47;;
60068;SDS011;45945;53.350;55.922;2022-10-16T04:12:00;8.50;;;4.70;;
60068;SDS011;45945;53.350;55.922;2022-10-16T04:13:01;8.32;;;3.78;;
60068;SDS011;45945;53.350;55.922;2022-10-16T04:14:02;7.78;;;3.78;;
60068;SDS011;45945;53.350;55.922;2022-10-16T04:15:03;8.07;;;3.30;;
60068;SDS011;45945;53.350;55.922;2022-10-16T04:16:04;6.85;;;3.60;;
60068;SDS011;45945;53.350;55.922;2022-10-16T04:17:05;8.38;;;4.10;;
60068;SDS011;45945;53.350;55.922;2022-10-16T04:18:06;7.70;;;3.75;;
60068;SDS011;45945;53.350;55.922;2022-10-16T04:19:08;10.02;;;4.25;;
60068;SDS011;45945;53.350;55.922;2022-10-16T04:20:09;8.20;;;4.03;;
60068;SDS011;45945;53.350;55.922;2022-10-16T04:21:10;7.50;;;3.70;;
60068;SDS011;45945;53.350;55.922;2022-10-16T04:22:14;8.82;;;4.43;;
60068;SDS011;45945;53.350;55.922;2022-10-16T04:23:15;8.15;;;4.40;;
60068;SDS011;45945;53.350;55.922;2022-10-16T04:24:16;7.97;;;4.38;;
60068;SDS011;45945;53.350;55.922;2022-10-16T04:25:17;7.32;;;3.92;;
60068;SDS011;45945;53.350;55.922;2022-10-16T04:26:18;8.10;;;4.13;;
60068;SDS011;45945;53.350;55.922;2022-10-16T04:27:19;8.10;;;4.35;;
60068;SDS011;45945;53.350;55.922;2022-10-16T04:28:19;7.72;;;4.10;;
60068;SDS011;45945;53.350;55.922;2022-10-16T04:29:23;7.68;;;4.05;;
60068;SDS011;45945;53.350;55.922;2022-10-16T04:30:24;13.77;;;7.15;;
60068;SDS011;45945;53.350;55.922;2022-10-16T04:31:25;15.90;;;8.10;;
60068;SDS011;45945;53.350;55.922;2022-10-16T04:32:26;16.02;;;8.75;;
60068;SDS011;45945;53.350;55.922;2022-10-16T04:33:27;14.55;;;8.77;;
60068;SDS011;45945;53.350;55.922;2022-10-16T04:34:28;17.02;;;9.48;;
60068;SDS011;45945;53.350;55.922;2022-10-16T04:35:29;20.08;;;10.57;;
60068;SDS011;45945;53.350;55.922;2022-10-16T04:36:30;19.13;;;10.32;;
60068;SDS011;45945;53.350;55.922;2022-10-16T04:37:32;18.88;;;10.18;;
60068;SDS011;45945;53.350;55.922;2022-10-16T04:38:33;20.10;;;10.32;;
60068;SDS011;45945;53.350;55.922;2022-10-16T04:39:34;20.02;;;10.88;;
60068;SDS011;45945;53.350;55.922;2022-10-16T04:40:35;17.95;;;9.02;;
60068;SDS011;45945;53.350;55.922;2022-10-16T04:41:39;16.88;;;8.50;;
60068;SDS011;45945;53.350;55.922;2022-10-16T04:42:39;15.75;;;8.65;;
60068;SDS011;45945;53.350;55.922;2022-10-16T04:43:41;16.90;;;8.23;;
60068;SDS011;45945;53.350;55.922;2022-10-16T04:44:42;15.18;;;8.20;;
60068;SDS011;45945;53.350;55.922;2022-10-16T04:45:43;13.13;;;6.95;;
60068;SDS011;45945;53.350;55.922;2022-10-16T04:46:44;15.30;;;7.75;;
60068;SDS011;45945;53.350;55.922;2022-10-16T04:47:45;13.50;;;6.88;;
60068;SDS011;45945;53.350;55.922;2022-10-16T04:48:46;14.52;;;7.05;;
60068;SDS011;45945;53.350;55.922;2022-10-16T04:49:47;16.55;;;6.82;;
60068;SDS011;45945;53.350;55.922;2022-10-16T04:50:48;14.07;;;7.03;;
60068;SDS011;45945;53.350;55.922;2022-10-16T04:51:49;13.43;;;6.80;;
60068;SDS011;45945;53.350;55.922;2022-10-16T04:52:50;14.40;;;6.93;;
60068;SDS011;45945;53.350;55.922;2022-10-16T04:53:51;13.95;;;6.50;;
60068;SDS011;45945;53.350;55.922;2022-10-16T04:54:52;13.48;;;7.25;;
60068;SDS011;45945;53.350;55.922;2022-10-16T04:55:54;11.70;;;6.28;;
60068;SDS011;45945;53.350;55.922;2022-10-16T04:56:55;13.52;;;6.07;;
60068;SDS011;45945;53.350;55.922;2022-10-16T04:57:56;12.05;;;6.22;;
60068;SDS011;45945;53.350;55.922;2022-10-16T04:58:57;13.13;;;6.88;;
60068;SDS011;45945;53.350;55.922;2022-10-16T04:59:58;13.90;;;7.03;;
60068;SDS011;45945;53.350;55.922;2022-10-16T05:00:58;13.68;;;6.70;;
60068;SDS011;45945;53.350;55.922;2022-10-16T05:01:59;12.57;;;6.50;;
60068;SDS011;45945;53.350;55.922;2022-10-16T05:03:00;12.98;;;6.00;;
60068;SDS011;45945;53.350;55.922;2022-10-16T05:04:02;11.52;;;6.30;;
60068;SDS011;45945;53.350;55.922;2022-10-16T05:05:04;11.52;;;5.45;;
60068;SDS011;45945;53.350;55.922;2022-10-16T05:06:06;14.02;;;6.55;;
60068;SDS011;45945;53.350;55.922;2022-10-16T05:07:07;12.35;;;6.30;;
60068;SDS011;45945;53.350;55.922;2022-10-16T05:08:09;11.88;;;5.85;;
60068;SDS011;45945;53.350;55.922;2022-10-16T05:09:09;10.82;;;6.05;;
60068;SDS011;45945;53.350;55.922;2022-10-16T05:10:11;9.48;;;5.45;;
60068;SDS011;45945;53.350;55.922;2022-10-16T05:11:12;12.00;;;6.32;;
60068;SDS011;45945;53.350;55.922;2022-10-16T05:12:12;14.07;;;5.90;;
60068;SDS011;45945;53.350;55.922;2022-10-16T05:13:13;10.95;;;5.78;;
60068;SDS011;45945;53.350;55.922;2022-10-16T05:14:14;13.60;;;7.07;;
60068;SDS011;45945;53.350;55.922;2022-10-16T05:15:15;11.95;;;5.93;;
60068;SDS011;45945;53.350;55.922;2022-10-16T05:16:16;12.07;;;6.40;;
60068;SDS011;45945;53.350;55.922;2022-10-16T05:17:17;12.38;;;6.28;;
60068;SDS011;45945;53.350;55.922;2022-10-16T05:18:21;10.35;;;5.95;;
60068;SDS011;45945;53.350;55.922;2022-10-16T05:19:22;11.68;;;5.93;;
60068;SDS011;45945;53.350;55.922;2022-10-16T05:20:23;12.50;;;6.85;;
60068;SDS011;45945;53.350;55.922;2022-10-16T05:21:24;12.20;;;6.72;;
60068;SDS011;45945;53.350;55.922;2022-10-16T05:22:25;10.20;;;6.10;;
60068;SDS011;45945;53.350;55.922;2022-10-16T05:23:26;11.00;;;6.00;;
60068;SDS011;45945;53.350;55.922;2022-10-16T05:24:27;11.38;;;6.05;;
60068;SDS011;45945;53.350;55.922;2022-10-16T05:25:28;12.90;;;7.07;;
60068;SDS011;45945;53.350;55.922;2022-10-16T05:26:30;11.68;;;6.65;;
60068;SDS011;45945;53.350;55.922;2022-10-16T05:27:30;12.32;;;6.40;;
60068;SDS011;45945;53.350;55.922;2022-10-16T05:28:32;15.95;;;7.22;;
60068;SDS011;45945;53.350;55.922;2022-10-16T05:29:33;13.35;;;7.43;;
60068;SDS011;45945;53.350;55.922;2022-10-16T05:30:34;15.18;;;7.70;;
60068;SDS011;45945;53.350;55.922;2022-10-16T05:31:37;13.55;;;7.03;;
60068;SDS011;45945;53.350;55.922;2022-10-16T05:32:38;13.60;;;7.50;;
60068;SDS011;45945;53.350;55.922;2022-10-16T05:33:46;13.65;;;7.07;;
60068;SDS011;45945;53.350;55.922;2022-10-16T05:34:47;16.17;;;7.80;;
60068;SDS011;45945;53.350;55.922;2022-10-16T05:35:48;12.55;;;6.80;;
60068;SDS011;45945;53.350;55.922;2022-10-16T05:36:50;14.60;;;7.75;;
60068;SDS011;45945;53.350;55.922;2022-10-16T05:37:51;13.95;;;7.50;;
60068;SDS011;45945;53.350;55.922;2022-10-16T05:38:53;16.48;;;8.38;;
60068;SDS011;45945;53.350;55.922;2022-10-16T05:39:54;13.57;;;7.75;;
60068;SDS011;45945;53.350;55.922;2022-10-16T05:40:55;13.77;;;7.85;;
60068;SDS011;45945;53.350;55.922;2022-10-16T05:41:56;12.75;;;7.18;;
60068;SDS011;45945;53.350;55.922;2022-10-16T05:42:58;14.52;;;8.27;;
60068;SDS011;45945;53.350;55.922;2022-10-16T05:43:59;13.93;;;7.80;;
60068;SDS011;45945;53.350;55.922;2022-10-16T05:45:01;13.60;;;7.00;;
60068;SDS011;45945;53.350;55.922;2022-10-16T05:46:05;15.90;;;10.20;;
60068;SDS011;45945;53.350;55.922;2022-10-16T05:47:06;15.98;;;8.35;;
60068;SDS011;45945;53.350;55.922;2022-10-16T05:48:07;14.32;;;7.78;;
60068;SDS011;45945;53.350;55.922;2022-10-16T05:49:08;15.98;;;8.60;;
60068;SDS011;45945;53.350;55.922;2022-10-16T05:50:09;16.75;;;8.80;;
60068;SDS011;45945;53.350;55.922;2022-10-16T05:51:11;16.73;;;9.15;;
60068;SDS011;45945;53.350;55.922;2022-10-16T05:52:12;16.33;;;8.02;;
60068;SDS011;45945;53.350;55.922;2022-10-16T05:53:13;14.63;;;7.38;;
60068;SDS011;45945;53.350;55.922;2022-10-16T05:54:14;13.45;;;7.53;;
60068;SDS011;45945;53.350;55.922;2022-10-16T05:55:15;13.77;;;7.10;;
60068;SDS011;45945;53.350;55.922;2022-10-16T05:56:16;15.70;;;9.27;;
60068;SDS011;45945;53.350;55.922;2022-10-16T05:57:17;12.65;;;7.47;;
60068;SDS011;45945;53.350;55.922;2022-10-16T05:58:21;12.20;;;7.40;;
60068;SDS011;45945;53.350;55.922;2022-10-16T05:59:23;14.15;;;7.88;;
60068;SDS011;45945;53.350;55.922;2022-10-16T06:00:24;14.75;;;7.85;;
60068;SDS011;45945;53.350;55.922;2022-10-16T06:01:25;14.00;;;8.45;;
60068;SDS011;45945;53.350;55.922;2022-10-16T06:02:26;13.88;;;8.18;;
60068;SDS011;45945;53.350;55.922;2022-10-16T06:03:27;14.38;;;7.93;;
60068;SDS011;45945;53.350;55.922;2022-10-16T06:04:28;13.63;;;6.88;;
60068;SDS011;45945;53.350;55.922;2022-10-16T06:05:29;13.98;;;7.47;;
60068;SDS011;45945;53.350;55.922;2022-10-16T06:06:30;12.45;;;7.35;;
60068;SDS011;45945;53.350;55.922;2022-10-16T06:07:33;14.10;;;7.00;;
60068;SDS011;45945;53.350;55.922;2022-10-16T06:08:36;14.73;;;7.38;;
60068;SDS011;45945;53.350;55.922;2022-10-16T06:09:37;13.15;;;7.32;;
60068;SDS011;45945;53.350;55.922;2022-10-16T06:10:38;11.95;;;6.43;;
60068;SDS011;45945;53.350;55.922;2022-10-16T06:11:39;12.82;;;7.10;;
60068;SDS011;45945;53.350;55.922;2022-10-16T06:12:40;12.45;;;7.97;;
60068;SDS011;45945;53.350;55.922;2022-10-16T06:13:41;12.45;;;7.10;;
60068;SDS011;45945;53.350;55.922;2022-10-16T06:14:42;14.35;;;7.45;;
60068;SDS011;45945;53.350;55.922;2022-10-16T06:15:44;14.07;;;7.03;;
60068;SDS011;45945;53.350;55.922;2022-10-16T06:16:45;13.70;;;7.22;;
60068;SDS011;45945;53.350;55.922;2022-10-16T06:17:46;15.25;;;8.35;;
60068;SDS011;45945;53.350;55.922;2022-10-16T06:18:47;15.63;;;8.82;;
60068;SDS011;45945;53.350;55.922;2022-10-16T06:19:48;13.75;;;8.38;;
60068;SDS011;45945;53.350;55.922;2022-10-16T06:20:49;16.65;;;8.57;;
60068;SDS011;45945;53.350;55.922;2022-10-16T06:21:50;13.52;;;8.25;;
60068;SDS011;45945;53.350;55.922;2022-10-16T06:22:51;15.00;;;8.05;;
60068;SDS011;45945;53.350;55.922;2022-10-16T06:23:52;13.77;;;7.28;;